sensor_id;sensor_type;location;lat;lon;timestamp;pressure;altitude;pressure_sealevel;temperature;humidity
6952;BME280;3515;50.138;8.502;2022-09-03T00:00:22;101410;;;17.9;49.5
6952;BME280;3515;50.138;8.502;2022-09-03T00:02:49;101410;;;17.8;49.5
6952;BME280;3515;50.138;8.502;2022-09-03T00:05:16;101390;;;17.8;49.5
6952;BME280;3515;50.138;8.502;2022-09-03T00:07:41;101400;;;17.8;49.4
6952;BME280;3515;50.138;8.502;2022-09-03T00:10:04;101400;;;17.8;49.4
6952;BME280;3515;50.138;8.502;2022-09-03T00:12:32;101390;;;17.7;49.4
6952;BME280;3515;50.138;8.502;2022-09-03T00:14:59;101380;;;17.7;49.4
6952;BME280;3515;50.138;8.502;2022-09-03T00:17:24;101380;;;17.7;49.5
6952;BME280;3515;50.138;8.502;2022-09-03T00:19:51;101390;;;17.7;49.5
6952;BME280;3515;50.138;8.502;2022-09-03T00:22:15;101390;;;17.7;49.5
6952;BME280;3515;50.138;8.502;2022-09-03T00:24:39;101390;;;17.7;49.5
6952;BME280;3515;50.138;8.502;2022-09-03T00:27:05;101390;;;17.8;49.5
6952;BME280;3515;50.138;8.502;2022-09-03T00:29:32;101400;;;17.7;50.5
6952;BME280;3515;50.138;8.502;2022-09-03T00:31:55;101420;;;17.6;50.4
6952;BME280;3515;50.138;8.502;2022-09-03T00:34:21;101390;;;17.6;50.5
6952;BME280;3515;50.138;8.502;2022-09-03T00:36:45;101400;;;17.6;50.5
6952;BME280;3515;50.138;8.502;2022-09-03T00:39:11;101410;;;17.6;50.4
6952;BME280;3515;50.138;8.502;2022-09-03T00:41:36;101420;;;17.6;50.4
6952;BME280;3515;50.138;8.502;2022-09-03T00:44:07;101400;;;17.5;50.4
6952;BME280;3515;50.138;8.502;2022-09-03T00:46:29;101410;;;17.5;50.4
6952;BME280;3515;50.138;8.502;2022-09-03T00:49:03;101390;;;17.4;50.4
6952;BME280;3515;50.138;8.502;2022-09-03T00:51:20;101380;;;17.4;50.4
6952;BME280;3515;50.138;8.502;2022-09-03T00:53:48;101370;;;17.4;50.9
6952;BME280;3515;50.138;8.502;2022-09-03T00:56:11;101400;;;17.4;50.9
6952;BME280;3515;50.138;8.502;2022-09-03T00:58:42;101400;;;17.4;50.9
6952;BME280;3515;50.138;8.502;2022-09-03T01:01:01;101400;;;17.2;51.4
6952;BME280;3515;50.138;8.502;2022-09-03T01:03:34;101400;;;17.2;51.9
6952;BME280;3515;50.138;8.502;2022-09-03T01:05:57;101400;;;17.1;51.9
6952;BME280;3515;50.138;8.502;2022-09-03T01:08:24;101390;;;17.2;51.4
6952;BME280;3515;50.138;8.502;2022-09-03T01:10:45;101400;;;17.2;51.4
6952;BME280;3515;50.138;8.502;2022-09-03T01:13:09;101390;;;17.4;51.5
6952;BME280;3515;50.138;8.502;2022-09-03T01:15:34;101390;;;17.2;51.5
6952;BME280;3515;50.138;8.502;2022-09-03T01:18:03;101400;;;17.2;51.9
6952;BME280;3515;50.138;8.502;2022-09-03T01:20:28;101400;;;17.1;51.9
6952;BME280;3515;50.138;8.502;2022-09-03T01:22:58;101390;;;17.1;51.4
6952;BME280;3515;50.138;8.502;2022-09-03T01:25:15;101400;;;17.1;51.9
6952;BME280;3515;50.138;8.502;2022-09-03T01:27:44;101390;;;17.1;51.9
6952;BME280;3515;50.138;8.502;2022-09-03T01:30:05;101370;;;17.1;52.4
6952;BME280;3515;50.138;8.502;2022-09-03T01:32:33;101350;;;17.1;52.4
6952;BME280;3515;50.138;8.502;2022-09-03T01:34:57;101400;;;17.1;52.4
6952;BME280;3515;50.138;8.502;2022-09-03T01:37:25;101420;;;17.0;52.5
6952;BME280;3515;50.138;8.502;2022-09-03T01:39:52;101380;;;16.9;52.4
6952;BME280;3515;50.138;8.502;2022-09-03T01:42:13;101370;;;16.9;52.4
6952;BME280;3515;50.138;8.502;2022-09-03T01:44:40;101380;;;17.0;52.9
6952;BME280;3515;50.138;8.502;2022-09-03T01:47:03;101390;;;16.9;52.4
6952;BME280;3515;50.138;8.502;2022-09-03T01:49:28;101390;;;16.9;52.4
6952;BME280;3515;50.138;8.502;2022-09-03T01:51:58;101400;;;16.9;52.9
6952;BME280;3515;50.138;8.502;2022-09-03T01:54:26;101390;;;16.9;52.9
6952;BME280;3515;50.138;8.502;2022-09-03T01:56:57;101390;;;17.0;52.5
6952;BME280;3515;50.138;8.502;2022-09-03T01:59:14;101380;;;17.0;52.5
6952;BME280;3515;50.138;8.502;2022-09-03T02:01:39;101390;;;17.1;52.5
6952;BME280;3515;50.138;8.502;2022-09-03T02:04:13;101390;;;17.1;52.5
6952;BME280;3515;50.138;8.502;2022-09-03T02:06:28;101360;;;17.0;52.5
6952;BME280;3515;50.138;8.502;2022-09-03T02:08:53;101370;;;17.1;52.5
6952;BME280;3515;50.138;8.502;2022-09-03T02:11:18;101390;;;17.1;52.5
6952;BME280;3515;50.138;8.502;2022-09-03T02:13:44;101410;;;17.1;52.5
6952;BME280;3515;50.138;8.502;2022-09-03T02:16:10;101390;;;17.1;52.5
6952;BME280;3515;50.138;8.502;2022-09-03T02:18:38;101390;;;17.0;53.0
6952;BME280;3515;50.138;8.502;2022-09-03T02:21:02;101380;;;17.0;52.9
6952;BME280;3515;50.138;8.502;2022-09-03T02:23:27;101380;;;17.1;53.0
6952;BME280;3515;50.138;8.502;2022-09-03T02:25:54;101380;;;17.1;53.0
6952;BME280;3515;50.138;8.502;2022-09-03T02:28:18;101370;;;17.1;53.0
6952;BME280;3515;50.138;8.502;2022-09-03T02:30:43;101390;;;17.1;53.0
6952;BME280;3515;50.138;8.502;2022-09-03T02:33:09;101380;;;17.2;53.0
6952;BME280;3515;50.138;8.502;2022-09-03T02:35:34;101390;;;17.2;53.0
6952;BME280;3515;50.138;8.502;2022-09-03T02:38:08;101390;;;17.2;53.0
6952;BME280;3515;50.138;8.502;2022-09-03T02:40:24;101380;;;17.2;53.0
6952;BME280;3515;50.138;8.502;2022-09-03T02:42:50;101380;;;17.2;53.0
6952;BME280;3515;50.138;8.502;2022-09-03T02:45:18;101400;;;17.2;53.0
6952;BME280;3515;50.138;8.502;2022-09-03T02:47:40;101400;;;17.2;53.0
6952;BME280;3515;50.138;8.502;2022-09-03T02:50:06;101390;;;17.3;53.0
6952;BME280;3515;50.138;8.502;2022-09-03T02:52:35;101380;;;17.3;53.0
6952;BME280;3515;50.138;8.502;2022-09-03T02:55:01;101370;;;17.2;53.0
6952;BME280;3515;50.138;8.502;2022-09-03T02:57:26;101370;;;17.3;53.0
6952;BME280;3515;50.138;8.502;2022-09-03T02:59:51;101380;;;17.3;53.0
6952;BME280;3515;50.138;8.502;2022-09-03T03:02:16;101410;;;17.4;53.0
6952;BME280;3515;50.138;8.502;2022-09-03T03:04:42;101380;;;17.4;53.0
6952;BME280;3515;50.138;8.502;2022-09-03T03:07:07;101370;;;17.4;53.0
6952;BME280;3515;50.138;8.502;2022-09-03T03:09:32;101370;;;17.4;53.0
6952;BME280;3515;50.138;8.502;2022-09-03T03:11:57;101370;;;17.4;53.0
6952;BME280;3515;50.138;8.502;2022-09-03T03:14:23;101370;;;17.4;52.5
6952;BME280;3515;50.138;8.502;2022-09-03T03:16:48;101380;;;17.4;53.0
6952;BME280;3515;50.138;8.502;2022-09-03T03:19:13;101360;;;17.4;53.0
6952;BME280;3515;50.138;8.502;2022-09-03T03:21:39;101370;;;17.4;53.0
6952;BME280;3515;50.138;8.502;2022-09-03T03:24:04;101380;;;17.4;53.0
6952;BME280;3515;50.138;8.502;2022-09-03T03:26:30;101380;;;17.4;53.0
6952;BME280;3515;50.138;8.502;2022-09-03T03:28:56;101380;;;17.4;53.0
6952;BME280;3515;50.138;8.502;2022-09-03T03:31:21;101350;;;17.4;53.0
6952;BME280;3515;50.138;8.502;2022-09-03T03:33:49;101360;;;17.4;53.0
6952;BME280;3515;50.138;8.502;2022-09-03T03:36:12;101380;;;17.4;53.0
6952;BME280;3515;50.138;8.502;2022-09-03T03:38:36;101390;;;17.4;53.0
6952;BME280;3515;50.138;8.502;2022-09-03T03:41:06;101370;;;17.4;53.0
6952;BME280;3515;50.138;8.502;2022-09-03T03:43:27;101380;;;17.4;53.0
6952;BME280;3515;50.138;8.502;2022-09-03T03:45:56;101370;;;17.4;53.5
6952;BME280;3515;50.138;8.502;2022-09-03T03:48:17;101350;;;17.3;53.5
6952;BME280;3515;50.138;8.502;2022-09-03T03:50:42;101360;;;17.4;53.5
6952;BME280;3515;50.138;8.502;2022-09-03T03:53:08;101370;;;17.4;53.0
6952;BME280;3515;50.138;8.502;2022-09-03T03:55:33;101390;;;17.3;53.0
6952;BME280;3515;50.138;8.502;2022-09-03T03:57:58;101350;;;17.4;53.0
6952;BME280;3515;50.138;8.502;2022-09-03T04:00:23;101350;;;17.3;53.0
6952;BME280;3515;50.138;8.502;2022-09-03T04:02:49;101370;;;17.4;53.0
6952;BME280;3515;50.138;8.502;2022-09-03T04:05:14;101360;;;17.3;53.5
6952;BME280;3515;50.138;8.502;2022-09-03T04:07:39;101340;;;17.3;53.5
6952;BME280;3515;50.138;8.502;2022-09-03T04:10:05;101350;;;17.2;53.5
6952;BME280;3515;50.138;8.502;2022-09-03T04:12:30;101350;;;17.2;53.5
6952;BME280;3515;50.138;8.502;2022-09-03T04:14:55;101330;;;17.2;53.5
6952;BME280;3515;50.138;8.502;2022-09-03T04:17:20;101370;;;17.2;54.0
6952;BME280;3515;50.138;8.502;2022-09-03T04:19:46;101370;;;17.1;54.0
6952;BME280;3515;50.138;8.502;2022-09-03T04:22:11;101350;;;17.1;54.0
6952;BME280;3515;50.138;8.502;2022-09-03T04:24:36;101350;;;17.1;54.0
6952;BME280;3515;50.138;8.502;2022-09-03T04:27:01;101340;;;17.1;54.5
6952;BME280;3515;50.138;8.502;2022-09-03T04:29:27;101370;;;17.1;54.0
6952;BME280;3515;50.138;8.502;2022-09-03T04:31:52;101380;;;17.1;54.0
6952;BME280;3515;50.138;8.502;2022-09-03T04:34:17;101370;;;17.1;54.5
6952;BME280;3515;50.138;8.502;2022-09-03T04:36:42;101340;;;17.1;54.5
6952;BME280;3515;50.138;8.502;2022-09-03T04:39:08;101350;;;17.1;54.5
6952;BME280;3515;50.138;8.502;2022-09-03T04:41:33;101370;;;17.1;54.5
6952;BME280;3515;50.138;8.502;2022-09-03T04:43:58;101370;;;17.1;54.5
6952;BME280;3515;50.138;8.502;2022-09-03T04:46:24;101360;;;17.1;54.5
6952;BME280;3515;50.138;8.502;2022-09-03T04:48:49;101350;;;17.0;54.5
6952;BME280;3515;50.138;8.502;2022-09-03T04:51:14;101370;;;16.9;54.5
6952;BME280;3515;50.138;8.502;2022-09-03T04:53:40;101360;;;16.9;54.5
6952;BME280;3515;50.138;8.502;2022-09-03T04:56:11;101350;;;16.9;54.5
6952;BME280;3515;50.138;8.502;2022-09-03T04:58:29;101350;;;16.9;54.5
6952;BME280;3515;50.138;8.502;2022-09-03T05:00:55;101360;;;16.9;54.8
6952;BME280;3515;50.138;8.502;2022-09-03T05:03:20;101340;;;16.9;55.0
6952;BME280;3515;50.138;8.502;2022-09-03T05:05:51;101340;;;17.0;55.0
6952;BME280;3515;50.138;8.502;2022-09-03T05:08:10;101340;;;16.9;55.0
6952;BME280;3515;50.138;8.502;2022-09-03T05:10:36;101370;;;17.0;55.0
6952;BME280;3515;50.138;8.502;2022-09-03T05:13:02;101360;;;17.0;55.0
6952;BME280;3515;50.138;8.502;2022-09-03T05:15:27;101350;;;17.0;55.0
6952;BME280;3515;50.138;8.502;2022-09-03T05:17:55;101350;;;17.0;55.0
6952;BME280;3515;50.138;8.502;2022-09-03T05:20:17;101360;;;17.0;55.0
6952;BME280;3515;50.138;8.502;2022-09-03T05:22:42;101360;;;17.0;55.0
6952;BME280;3515;50.138;8.502;2022-09-03T05:25:07;101370;;;17.0;55.5
6952;BME280;3515;50.138;8.502;2022-09-03T05:27:32;101370;;;17.0;55.5
6952;BME280;3515;50.138;8.502;2022-09-03T05:29:58;101390;;;17.0;55.0
6952;BME280;3515;50.138;8.502;2022-09-03T05:32:23;101380;;;17.0;55.0
6952;BME280;3515;50.138;8.502;2022-09-03T05:34:48;101370;;;17.0;55.0
6952;BME280;3515;50.138;8.502;2022-09-03T05:37:13;101390;;;17.1;55.0
6952;BME280;3515;50.138;8.502;2022-09-03T05:39:39;101390;;;17.1;55.0
6952;BME280;3515;50.138;8.502;2022-09-03T05:42:04;101400;;;17.1;55.0
6952;BME280;3515;50.138;8.502;2022-09-03T05:44:29;101390;;;17.2;55.0
6952;BME280;3515;50.138;8.502;2022-09-03T05:46:54;101410;;;17.2;55.0
6952;BME280;3515;50.138;8.502;2022-09-03T05:49:20;101390;;;17.3;55.0
6952;BME280;3515;50.138;8.502;2022-09-03T05:51:45;101370;;;17.3;55.0
6952;BME280;3515;50.138;8.502;2022-09-03T05:54:10;101400;;;17.4;55.0
6952;BME280;3515;50.138;8.502;2022-09-03T05:56:36;101400;;;17.4;55.5
6952;BME280;3515;50.138;8.502;2022-09-03T05:59:01;101420;;;17.4;55.5
6952;BME280;3515;50.138;8.502;2022-09-03T06:01:27;101400;;;17.4;55.5
6952;BME280;3515;50.138;8.502;2022-09-03T06:03:52;101390;;;17.4;55.5
6952;BME280;3515;50.138;8.502;2022-09-03T06:06:16;101400;;;17.4;55.5
6952;BME280;3515;50.138;8.502;2022-09-03T06:08:41;101400;;;17.4;55.5
6952;BME280;3515;50.138;8.502;2022-09-03T06:11:07;101410;;;17.3;56.0
6952;BME280;3515;50.138;8.502;2022-09-03T06:13:33;101400;;;17.3;55.5
6952;BME280;3515;50.138;8.502;2022-09-03T06:15:58;101400;;;17.3;55.5
6952;BME280;3515;50.138;8.502;2022-09-03T06:18:23;101410;;;17.4;56.0
6952;BME280;3515;50.138;8.502;2022-09-03T06:20:53;101400;;;17.4;55.5
6952;BME280;3515;50.138;8.502;2022-09-03T06:23:13;101390;;;17.4;55.5
6952;BME280;3515;50.138;8.502;2022-09-03T06:25:38;101410;;;17.3;56.0
6952;BME280;3515;50.138;8.502;2022-09-03T06:28:03;101400;;;17.3;56.0
6952;BME280;3515;50.138;8.502;2022-09-03T06:30:29;101440;;;17.3;56.0
6952;BME280;3515;50.138;8.502;2022-09-03T06:32:54;101420;;;17.3;56.0
6952;BME280;3515;50.138;8.502;2022-09-03T06:35:19;101440;;;17.3;56.0
6952;BME280;3515;50.138;8.502;2022-09-03T06:37:44;101420;;;17.4;56.0
6952;BME280;3515;50.138;8.502;2022-09-03T06:40:10;101410;;;17.4;56.5
6952;BME280;3515;50.138;8.502;2022-09-03T06:42:35;101410;;;17.4;56.5
6952;BME280;3515;50.138;8.502;2022-09-03T06:45:06;101450;;;17.4;56.5
6952;BME280;3515;50.138;8.502;2022-09-03T06:47:30;101420;;;17.4;56.5
6952;BME280;3515;50.138;8.502;2022-09-03T06:49:55;101410;;;17.4;57.0
6952;BME280;3515;50.138;8.502;2022-09-03T06:52:21;101400;;;17.4;56.5
6952;BME280;3515;50.138;8.502;2022-09-03T06:54:46;101420;;;17.4;57.0
6952;BME280;3515;50.138;8.502;2022-09-03T06:57:11;101400;;;17.4;57.0
6952;BME280;3515;50.138;8.502;2022-09-03T06:59:36;101410;;;17.4;57.0
6952;BME280;3515;50.138;8.502;2022-09-03T07:02:02;101430;;;17.4;57.0
6952;BME280;3515;50.138;8.502;2022-09-03T07:04:27;101410;;;17.4;57.5
6952;BME280;3515;50.138;8.502;2022-09-03T07:06:52;101420;;;17.4;58.0
6952;BME280;3515;50.138;8.502;2022-09-03T07:09:18;101450;;;17.3;58.0
6952;BME280;3515;50.138;8.502;2022-09-03T07:11:43;101400;;;17.4;58.0
6952;BME280;3515;50.138;8.502;2022-09-03T07:14:08;101460;;;17.4;57.5
6952;BME280;3515;50.138;8.502;2022-09-03T07:16:35;101430;;;17.4;57.5
6952;BME280;3515;50.138;8.502;2022-09-03T07:19:00;101440;;;17.4;57.5
6952;BME280;3515;50.138;8.502;2022-09-03T07:21:26;101430;;;17.4;58.0
6952;BME280;3515;50.138;8.502;2022-09-03T07:23:51;101430;;;17.4;57.5
6952;BME280;3515;50.138;8.502;2022-09-03T07:26:16;101450;;;17.4;58.0
6952;BME280;3515;50.138;8.502;2022-09-03T07:28:41;101430;;;17.4;58.0
6952;BME280;3515;50.138;8.502;2022-09-03T07:31:07;101430;;;17.6;58.5
6952;BME280;3515;50.138;8.502;2022-09-03T07:33:31;101440;;;17.6;58.5
6952;BME280;3515;50.138;8.502;2022-09-03T07:36:01;101420;;;17.6;59.0
6952;BME280;3515;50.138;8.502;2022-09-03T07:38:22;101430;;;17.4;59.5
6952;BME280;3515;50.138;8.502;2022-09-03T07:40:47;101430;;;17.5;59.0
6952;BME280;3515;50.138;8.502;2022-09-03T07:43:12;101440;;;17.5;59.0
6952;BME280;3515;50.138;8.502;2022-09-03T07:45:37;101430;;;17.5;59.0
6952;BME280;3515;50.138;8.502;2022-09-03T07:48:03;101440;;;17.5;59.0
6952;BME280;3515;50.138;8.502;2022-09-03T07:50:28;101430;;;17.4;60.0
6952;BME280;3515;50.138;8.502;2022-09-03T07:52:55;101450;;;17.5;59.8
6952;BME280;3515;50.138;8.502;2022-09-03T07:55:19;101450;;;17.5;60.0
6952;BME280;3515;50.138;8.502;2022-09-03T07:57:44;101440;;;17.5;60.0
6952;BME280;3515;50.138;8.502;2022-09-03T08:00:10;101450;;;17.5;59.0
6952;BME280;3515;50.138;8.502;2022-09-03T08:02:34;101450;;;17.5;60.0
6952;BME280;3515;50.138;8.502;2022-09-03T08:04:59;101440;;;17.4;60.5
6952;BME280;3515;50.138;8.502;2022-09-03T08:07:25;101450;;;17.4;60.5
6952;BME280;3515;50.138;8.502;2022-09-03T08:09:50;101460;;;17.3;61.4
6952;BME280;3515;50.138;8.502;2022-09-03T08:12:15;101450;;;17.3;62.4
6952;BME280;3515;50.138;8.502;2022-09-03T08:14:40;101470;;;17.2;63.9
6952;BME280;3515;50.138;8.502;2022-09-03T08:17:06;101470;;;17.1;63.9
6952;BME280;3515;50.138;8.502;2022-09-03T08:19:31;101480;;;17.1;64.4
6952;BME280;3515;50.138;8.502;2022-09-03T08:21:56;101470;;;17.1;65.4
6952;BME280;3515;50.138;8.502;2022-09-03T08:24:21;101470;;;17.2;65.7
6952;BME280;3515;50.138;8.502;2022-09-03T08:26:47;101450;;;17.2;65.9
6952;BME280;3515;50.138;8.502;2022-09-03T08:29:12;101450;;;17.4;65.9
6952;BME280;3515;50.138;8.502;2022-09-03T08:31:37;101460;;;17.4;66.5
6952;BME280;3515;50.138;8.502;2022-09-03T08:34:04;101440;;;17.5;66.0
6952;BME280;3515;50.138;8.502;2022-09-03T08:36:28;101450;;;17.6;65.5
6952;BME280;3515;50.138;8.502;2022-09-03T08:38:53;101470;;;17.6;66.0
6952;BME280;3515;50.138;8.502;2022-09-03T08:41:19;101460;;;17.6;66.0
6952;BME280;3515;50.138;8.502;2022-09-03T08:43:54;101450;;;17.6;67.0
6952;BME280;3515;50.138;8.502;2022-09-03T08:46:09;101450;;;17.7;66.5
6952;BME280;3515;50.138;8.502;2022-09-03T08:48:34;101430;;;17.9;65.5
6952;BME280;3515;50.138;8.502;2022-09-03T08:50:59;101480;;;17.9;65.4
6952;BME280;3515;50.138;8.502;2022-09-03T08:53:26;101470;;;17.9;65.5
6952;BME280;3515;50.138;8.502;2022-09-03T08:55:51;101460;;;18.1;65.0
6952;BME280;3515;50.138;8.502;2022-09-03T08:58:15;101470;;;18.1;65.5
6952;BME280;3515;50.138;8.502;2022-09-03T09:00:44;101480;;;18.1;65.0
6952;BME280;3515;50.138;8.502;2022-09-03T09:03:12;101450;;;18.4;64.0
6952;BME280;3515;50.138;8.502;2022-09-03T09:05:37;101480;;;18.3;64.5
6952;BME280;3515;50.138;8.502;2022-09-03T09:07:58;101470;;;18.4;65.0
6952;BME280;3515;50.138;8.502;2022-09-03T09:10:22;101480;;;18.3;65.0
6952;BME280;3515;50.138;8.502;2022-09-03T09:12:47;101470;;;18.4;64.5
6952;BME280;3515;50.138;8.502;2022-09-03T09:15:12;101480;;;18.4;64.9
6952;BME280;3515;50.138;8.502;2022-09-03T09:20:05;101470;;;18.2;64.9
6952;BME280;3515;50.138;8.502;2022-09-03T09:22:28;101480;;;18.1;64.9
6952;BME280;3515;50.138;8.502;2022-09-03T09:24:52;101480;;;18.1;65.4
6952;BME280;3515;50.138;8.502;2022-09-03T09:27:18;101470;;;18.1;65.4
6952;BME280;3515;50.138;8.502;2022-09-03T09:29:45;101480;;;18.1;65.4
6952;BME280;3515;50.138;8.502;2022-09-03T09:32:08;101480;;;18.2;64.9
6952;BME280;3515;50.138;8.502;2022-09-03T09:34:34;101460;;;18.2;64.9
6952;BME280;3515;50.138;8.502;2022-09-03T09:37:00;101480;;;18.4;64.5
6952;BME280;3515;50.138;8.502;2022-09-03T09:39:24;101490;;;18.4;64.5
6952;BME280;3515;50.138;8.502;2022-09-03T09:41:57;101460;;;18.3;64.9
6952;BME280;3515;50.138;8.502;2022-09-03T09:44:18;101480;;;18.4;64.9
6952;BME280;3515;50.138;8.502;2022-09-03T09:46:40;101490;;;18.4;64.5
6952;BME280;3515;50.138;8.502;2022-09-03T09:49:07;101480;;;18.3;65.4
6952;BME280;3515;50.138;8.502;2022-09-03T09:51:30;101490;;;18.3;65.4
6952;BME280;3515;50.138;8.502;2022-09-03T09:54:11;101480;;;18.4;64.9
6952;BME280;3515;50.138;8.502;2022-09-03T09:56:21;101510;;;18.4;64.9
6952;BME280;3515;50.138;8.502;2022-09-03T09:58:46;101520;;;18.4;64.4
6952;BME280;3515;50.138;8.502;2022-09-03T10:01:18;101480;;;18.3;64.9
6952;BME280;3515;50.138;8.502;2022-09-03T10:03:38;101490;;;18.4;64.9
6952;BME280;3515;50.138;8.502;2022-09-03T10:06:04;101480;;;18.4;64.9
6952;BME280;3515;50.138;8.502;2022-09-03T10:08:27;101480;;;18.5;64.0
6952;BME280;3515;50.138;8.502;2022-09-03T10:10:52;101500;;;18.5;63.5
6952;BME280;3515;50.138;8.502;2022-09-03T10:13:18;101470;;;18.6;63.0
6952;BME280;3515;50.138;8.502;2022-09-03T10:15:43;101480;;;18.8;63.0
6952;BME280;3515;50.138;8.502;2022-09-03T10:18:10;101480;;;18.8;63.0
6952;BME280;3515;50.138;8.502;2022-09-03T10:20:35;101490;;;18.7;63.5
6952;BME280;3515;50.138;8.502;2022-09-03T10:23:01;101500;;;18.8;63.5
6952;BME280;3515;50.138;8.502;2022-09-03T10:25:25;101470;;;18.7;63.5
6952;BME280;3515;50.138;8.502;2022-09-03T10:27:50;101470;;;18.9;62.5
6952;BME280;3515;50.138;8.502;2022-09-03T10:30:14;101480;;;19.1;62.0
6952;BME280;3515;50.138;8.502;2022-09-03T10:32:40;101470;;;19.2;62.0
6952;BME280;3515;50.138;8.502;2022-09-03T10:35:06;101490;;;19.4;62.0
6952;BME280;3515;50.138;8.502;2022-09-03T10:37:37;101470;;;19.3;62.0
6952;BME280;3515;50.138;8.502;2022-09-03T10:40:07;101460;;;19.4;62.0
6952;BME280;3515;50.138;8.502;2022-09-03T10:42:33;101500;;;19.5;62.0
6952;BME280;3515;50.138;8.502;2022-09-03T10:44:57;101480;;;19.5;62.0
6952;BME280;3515;50.138;8.502;2022-09-03T10:47:23;101500;;;19.6;62.0
6952;BME280;3515;50.138;8.502;2022-09-03T10:49:48;101470;;;19.6;62.0
6952;BME280;3515;50.138;8.502;2022-09-03T10:52:08;101470;;;19.4;62.5
6952;BME280;3515;50.138;8.502;2022-09-03T10:54:37;101470;;;19.5;62.5
6952;BME280;3515;50.138;8.502;2022-09-03T10:57:00;101460;;;19.8;61.5
6952;BME280;3515;50.138;8.502;2022-09-03T10:59:29;101490;;;19.7;62.5
6952;BME280;3515;50.138;8.502;2022-09-03T11:01:49;101470;;;19.6;63.0
6952;BME280;3515;50.138;8.502;2022-09-03T11:04:17;101480;;;19.6;63.5
6952;BME280;3515;50.138;8.502;2022-09-03T11:06:39;101470;;;19.6;63.0
6952;BME280;3515;50.138;8.502;2022-09-03T11:09:07;101490;;;19.6;62.5
6952;BME280;3515;50.138;8.502;2022-09-03T11:11:31;101480;;;19.7;62.5
6952;BME280;3515;50.138;8.502;2022-09-03T11:13:56;101470;;;19.6;63.5
6952;BME280;3515;50.138;8.502;2022-09-03T11:16:22;101490;;;19.7;63.0
6952;BME280;3515;50.138;8.502;2022-09-03T11:18:47;101470;;;19.8;63.5
6952;BME280;3515;50.138;8.502;2022-09-03T11:21:12;101460;;;19.6;63.5
6952;BME280;3515;50.138;8.502;2022-09-03T11:23:37;101460;;;19.8;63.0
6952;BME280;3515;50.138;8.502;2022-09-03T11:26:04;101490;;;20.0;62.5
6952;BME280;3515;50.138;8.502;2022-09-03T11:28:32;101470;;;19.9;63.0
6952;BME280;3515;50.138;8.502;2022-09-03T11:31:01;101450;;;19.9;63.0
6952;BME280;3515;50.138;8.502;2022-09-03T11:33:18;101480;;;20.0;63.0
6952;BME280;3515;50.138;8.502;2022-09-03T11:35:42;101460;;;20.1;63.0
6952;BME280;3515;50.138;8.502;2022-09-03T11:38:19;101460;;;20.2;62.5
6952;BME280;3515;50.138;8.502;2022-09-03T11:40:33;101450;;;20.5;62.0
6952;BME280;3515;50.138;8.502;2022-09-03T11:43:06;101430;;;20.4;62.5
6952;BME280;3515;50.138;8.502;2022-09-03T11:45:33;101450;;;20.5;62.0
6952;BME280;3515;50.138;8.502;2022-09-03T11:47:49;101460;;;20.4;63.0
6952;BME280;3515;50.138;8.502;2022-09-03T11:50:18;101460;;;20.4;63.0
6952;BME280;3515;50.138;8.502;2022-09-03T11:52:39;101440;;;20.6;62.5
6952;BME280;3515;50.138;8.502;2022-09-03T11:55:05;101460;;;20.6;62.5
6952;BME280;3515;50.138;8.502;2022-09-03T11:57:30;101440;;;21.0;61.5
6952;BME280;3515;50.138;8.502;2022-09-03T12:00:07;101440;;;21.1;61.5
6952;BME280;3515;50.138;8.502;2022-09-03T12:02:23;101450;;;21.1;62.0
6952;BME280;3515;50.138;8.502;2022-09-03T12:04:48;101460;;;21.1;62.2
6952;BME280;3515;50.138;8.502;2022-09-03T12:07:16;101410;;;20.9;62.0
6952;BME280;3515;50.138;8.502;2022-09-03T12:09:45;101450;;;21.0;62.0
6952;BME280;3515;50.138;8.502;2022-09-03T12:12:08;101420;;;21.1;61.5
6952;BME280;3515;50.138;8.502;2022-09-03T12:14:30;101420;;;21.4;60.5
6952;BME280;3515;50.138;8.502;2022-09-03T12:17:03;101420;;;21.7;60.0
6952;BME280;3515;50.138;8.502;2022-09-03T12:19:19;101420;;;21.8;60.5
6952;BME280;3515;50.138;8.502;2022-09-03T12:21:46;101400;;;21.9;60.0
6952;BME280;3515;50.138;8.502;2022-09-03T12:24:10;101420;;;22.1;60.0
6952;BME280;3515;50.138;8.502;2022-09-03T12:26:37;101410;;;22.1;60.0
6952;BME280;3515;50.138;8.502;2022-09-03T12:28:58;101390;;;22.0;60.0
6952;BME280;3515;50.138;8.502;2022-09-03T12:31:24;101400;;;22.1;60.0
6952;BME280;3515;50.138;8.502;2022-09-03T12:33:50;101420;;;21.9;61.0
6952;BME280;3515;50.138;8.502;2022-09-03T12:36:14;101420;;;21.9;61.0
6952;BME280;3515;50.138;8.502;2022-09-03T12:38:39;101420;;;22.2;60.0
6952;BME280;3515;50.138;8.502;2022-09-03T12:41:09;101390;;;22.2;60.5
6952;BME280;3515;50.138;8.502;2022-09-03T12:43:30;101400;;;22.3;61.0
6952;BME280;3515;50.138;8.502;2022-09-03T12:45:55;101400;;;22.1;60.0
6952;BME280;3515;50.138;8.502;2022-09-03T12:48:20;101400;;;22.7;59.0
6952;BME280;3515;50.138;8.502;2022-09-03T12:50:46;101400;;;22.9;58.5
6952;BME280;3515;50.138;8.502;2022-09-03T12:53:11;101400;;;23.1;58.0
6952;BME280;3515;50.138;8.502;2022-09-03T12:55:37;101380;;;23.0;59.3
6952;BME280;3515;50.138;8.502;2022-09-03T12:58:04;101390;;;22.9;58.5
6952;BME280;3515;50.138;8.502;2022-09-03T13:00:27;101380;;;23.1;57.5
6952;BME280;3515;50.138;8.502;2022-09-03T13:02:52;101380;;;23.4;57.9
6952;BME280;3515;50.138;8.502;2022-09-03T13:05:19;101400;;;23.4;58.0
6952;BME280;3515;50.138;8.502;2022-09-03T13:07:43;101400;;;23.2;58.0
6952;BME280;3515;50.138;8.502;2022-09-03T13:10:13;101400;;;23.4;57.0
6952;BME280;3515;50.138;8.502;2022-09-03T13:12:34;101410;;;23.4;57.5
6952;BME280;3515;50.138;8.502;2022-09-03T13:15:06;101390;;;23.2;58.0
6952;BME280;3515;50.138;8.502;2022-09-03T13:17:29;101370;;;22.9;58.5
6952;BME280;3515;50.138;8.502;2022-09-03T13:19:55;101400;;;22.9;58.5
6952;BME280;3515;50.138;8.502;2022-09-03T13:22:17;101390;;;22.9;58.5
6952;BME280;3515;50.138;8.502;2022-09-03T13:24:46;101410;;;22.6;59.5
6952;BME280;3515;50.138;8.502;2022-09-03T13:27:08;101400;;;22.6;59.5
6952;BME280;3515;50.138;8.502;2022-09-03T13:29:37;101420;;;22.6;59.5
6952;BME280;3515;50.138;8.502;2022-09-03T13:32:02;101410;;;22.4;60.0
6952;BME280;3515;50.138;8.502;2022-09-03T13:34:28;101400;;;22.4;59.5
6952;BME280;3515;50.138;8.502;2022-09-03T13:36:52;101420;;;22.5;59.5
6952;BME280;3515;50.138;8.502;2022-09-03T13:39:21;101410;;;22.5;59.5
6952;BME280;3515;50.138;8.502;2022-09-03T13:41:42;101430;;;22.5;59.5
6952;BME280;3515;50.138;8.502;2022-09-03T13:44:08;101400;;;22.5;59.5
6952;BME280;3515;50.138;8.502;2022-09-03T13:46:40;101420;;;22.7;59.0
6952;BME280;3515;50.138;8.502;2022-09-03T13:49:03;101390;;;22.9;58.5
6952;BME280;3515;50.138;8.502;2022-09-03T13:51:26;101410;;;23.2;58.0
6952;BME280;3515;50.138;8.502;2022-09-03T13:53:58;101420;;;23.0;58.5
6952;BME280;3515;50.138;8.502;2022-09-03T13:56:20;101400;;;23.0;58.0
6952;BME280;3515;50.138;8.502;2022-09-03T13:58:43;101390;;;23.0;58.0